Time;durP1;ratioP1;P1;durP2;ratioP2;P2;SDS_P1;SDS_P2;PMS_P1;PMS_P2;Temp;Humidity;BMP_temperature;BMP_pressure;BME280_temperature;BME280_humidity;BME280_pressure;Samples;Min_cycle;Max_cycle;Signal;HPM_P1;HPM_P2
2023/11/11 00:01:55;;;;;;;4.18;0.57;;;6.70;99.90;;;;;;5110435;28;20020;-66
2023/11/11 00:04:24;;;;;;;2.92;0.70;;;6.70;99.90;;;;;;5109969;28;20025;-65
2023/11/11 00:06:51;;;;;;;1.97;0.67;;;6.80;99.90;;;;;;5099448;28;20035;-65
2023/11/11 00:09:18;;;;;;;3.42;0.63;;;6.80;99.90;;;;;;5094920;28;20063;-65
2023/11/11 00:11:47;;;;;;;1.48;0.65;;;6.70;99.90;;;;;;5100633;28;20059;-65
2023/11/11 00:14:14;;;;;;;3.67;1.13;;;6.70;99.90;;;;;;5110526;28;20020;-65
2023/11/11 00:16:40;;;;;;;0.70;0.40;;;6.70;99.90;;;;;;5112808;28;20051;-65
2023/11/11 00:19:06;;;;;;;1.83;0.68;;;6.70;99.90;;;;;;5111359;28;20024;-65
2023/11/11 00:21:41;;;;;;;1.38;0.60;;;6.60;99.90;;;;;;5107445;28;20012;-65
2023/11/11 00:24:09;;;;;;;2.13;0.70;;;6.50;99.90;;;;;;5111856;28;20027;-65
2023/11/11 00:26:35;;;;;;;2.35;0.73;;;6.50;99.90;;;;;;5114906;28;20027;-64
2023/11/11 00:29:02;;;;;;;0.77;0.35;;;6.60;99.90;;;;;;5113409;28;20023;-65
2023/11/11 00:31:28;;;;;;;4.35;1.08;;;6.60;99.90;;;;;;5111861;28;20071;-65
2023/11/11 00:33:54;;;;;;;2.72;1.60;;;6.60;99.90;;;;;;5107715;28;20078;-65
2023/11/11 00:36:20;;;;;;;2.88;0.63;;;6.60;99.90;;;;;;5106798;28;20024;-64
2023/11/11 00:38:46;;;;;;;2.55;0.50;;;6.50;99.90;;;;;;5101012;28;20039;-67
2023/11/11 00:41:11;;;;;;;0.80;0.50;;;6.50;99.90;;;;;;5109450;28;20380;-64
2023/11/11 00:43:37;;;;;;;3.72;0.80;;;6.60;99.90;;;;;;5112023;28;20020;-64
2023/11/11 00:46:03;;;;;;;0.75;0.50;;;6.50;99.90;;;;;;5114016;28;20046;-64
2023/11/11 00:48:29;;;;;;;1.98;0.60;;;6.50;99.90;;;;;;5108105;28;20345;-64
2023/11/11 00:50:55;;;;;;;1.48;0.70;;;6.50;99.90;;;;;;5113271;28;20196;-64
2023/11/11 00:53:21;;;;;;;0.50;0.28;;;6.50;99.90;;;;;;5113886;28;20485;-64
2023/11/11 00:55:46;;;;;;;1.23;0.52;;;6.50;99.90;;;;;;5113354;27;20007;-64
2023/11/11 00:58:12;;;;;;;1.52;0.60;;;6.60;99.90;;;;;;5113571;28;20070;-64
2023/11/11 01:00:43;;;;;;;1.35;0.60;;;6.50;99.90;;;;;;5113943;28;20441;-64
2023/11/11 01:03:09;;;;;;;3.67;0.50;;;6.50;99.90;;;;;;5112531;28;20609;-64
2023/11/11 01:05:35;;;;;;;0.80;0.50;;;6.60;99.90;;;;;;5113002;28;20095;-64
2023/11/11 01:08:01;;;;;;;0.98;0.30;;;6.60;99.90;;;;;;5102441;28;20073;-64
2023/11/11 01:10:34;;;;;;;0.85;0.40;;;6.60;99.90;;;;;;5103489;28;20020;-64
2023/11/11 01:13:01;;;;;;;1.63;0.43;;;6.60;99.90;;;;;;5112120;28;20023;-64
2023/11/11 01:15:26;;;;;;;1.02;0.40;;;6.60;99.90;;;;;;5111339;28;20020;-64
2023/11/11 01:17:53;;;;;;;0.43;0.43;;;6.60;99.90;;;;;;5131136;27;20039;-65
2023/11/11 01:20:18;;;;;;;0.52;0.30;;;6.60;99.90;;;;;;5134170;27;20435;-64
2023/11/11 01:22:44;;;;;;;1.08;0.35;;;6.60;99.90;;;;;;5134139;27;20039;-64
2023/11/11 01:25:12;;;;;;;2.85;0.40;;;6.70;99.90;;;;;;5132819;27;20058;-64
2023/11/11 01:27:38;;;;;;;0.82;0.30;;;6.80;99.90;;;;;;5133460;27;20524;-65
2023/11/11 01:30:04;;;;;;;2.30;1.00;;;6.70;99.90;;;;;;5133542;27;20022;-65
2023/11/11 01:32:30;;;;;;;0.57;0.30;;;6.80;99.90;;;;;;5133427;27;20023;-64
2023/11/11 01:34:55;;;;;;;0.75;0.25;;;6.80;99.90;;;;;;5132636;27;20642;-65
2023/11/11 01:37:21;;;;;;;1.00;0.20;;;6.80;99.90;;;;;;5126572;27;20020;-64
2023/11/11 01:39:47;;;;;;;0.52;0.30;;;6.80;99.90;;;;;;5128940;27;20051;-64
2023/11/11 01:42:15;;;;;;;0.20;0.20;;;6.80;99.90;;;;;;5128785;27;20020;-64
2023/11/11 01:44:40;;;;;;;0.15;0.10;;;6.80;99.90;;;;;;5127627;27;20025;-64
2023/11/11 01:47:06;;;;;;;1.33;0.20;;;7.00;99.90;;;;;;5133870;27;20027;-64
2023/11/11 01:49:36;;;;;;;0.63;0.35;;;7.00;99.90;;;;;;5133340;27;20118;-64
2023/11/11 01:52:03;;;;;;;0.68;0.30;;;7.10;99.90;;;;;;5133184;27;20376;-64
2023/11/11 01:54:30;;;;;;;0.30;0.20;;;7.10;99.90;;;;;;5132731;27;20050;-64
2023/11/11 01:56:56;;;;;;;0.75;0.28;;;7.10;99.90;;;;;;5133184;27;20123;-64
2023/11/11 01:59:25;;;;;;;0.40;0.10;;;7.10;99.90;;;;;;5132777;27;20072;-65
2023/11/11 02:01:51;;;;;;;0.20;0.20;;;7.10;99.90;;;;;;5133417;27;20080;-65
2023/11/11 02:04:18;;;;;;;1.85;0.10;;;7.10;99.90;;;;;;5133478;27;20027;-64
2023/11/11 02:06:49;;;;;;;0.30;0.20;;;7.20;99.90;;;;;;5123469;27;20030;-64
2023/11/11 02:09:18;;;;;;;0.65;0.10;;;7.30;99.90;;;;;;5118355;27;20027;-64
2023/11/11 02:11:47;;;;;;;0.60;0.20;;;7.30;99.90;;;;;;5123470;27;20470;-64
2023/11/11 02:14:14;;;;;;;0.22;0.10;;;7.30;99.90;;;;;;5132140;27;20023;-64
2023/11/11 02:16:39;;;;;;;0.63;0.20;;;7.40;99.90;;;;;;5133192;27;20050;-64
2023/11/11 02:19:06;;;;;;;1.20;0.10;;;7.40;99.90;;;;;;5132079;27;20027;-64
2023/11/11 02:21:32;;;;;;;0.15;0.15;;;7.40;99.90;;;;;;5133857;27;20026;-64
2023/11/11 02:24:02;;;;;;;0.95;0.30;;;7.30;99.90;;;;;;5132039;27;20033;-64
2023/11/11 02:26:28;;;;;;;1.17;0.30;;;7.30;99.90;;;;;;5122229;27;20456;-64
2023/11/11 02:28:55;;;;;;;0.63;0.10;;;7.40;99.90;;;;;;5129308;27;20069;-64
2023/11/11 02:31:21;;;;;;;1.80;0.10;;;7.30;99.90;;;;;;5132580;27;20064;-64
2023/11/11 02:33:47;;;;;;;0.47;0.20;;;7.30;99.90;;;;;;5132563;27;20106;-64
2023/11/11 02:36:13;;;;;;;0.85;0.10;;;7.30;99.90;;;;;;5131165;27;20034;-64
2023/11/11 02:38:39;;;;;;;0.82;0.35;;;7.20;99.90;;;;;;5124017;27;20486;-64
2023/11/11 02:41:05;;;;;;;2.35;0.20;;;7.20;99.90;;;;;;5125322;27;20019;-64
2023/11/11 02:43:31;;;;;;;1.70;0.10;;;7.10;99.90;;;;;;5128045;27;20028;-64
2023/11/11 02:45:56;;;;;;;0.10;0.10;;;7.00;99.90;;;;;;5122507;27;20023;-64
2023/11/11 02:48:22;;;;;;;0.20;0.10;;;6.90;99.90;;;;;;5132516;27;20047;-64
2023/11/11 02:50:47;;;;;;;0.75;0.00;;;6.70;99.90;;;;;;5132630;27;20018;-64
2023/11/11 02:53:13;;;;;;;0.32;0.10;;;6.50;99.90;;;;;;5131714;27;20790;-64
2023/11/11 02:55:39;;;;;;;0.43;0.20;;;6.20;99.90;;;;;;5132050;27;20019;-64
2023/11/11 02:58:04;;;;;;;0.38;0.17;;;6.00;99.90;;;;;;5131640;27;20415;-64
2023/11/11 03:00:30;;;;;;;0.45;0.22;;;5.80;99.90;;;;;;5132824;27;20027;-64
2023/11/11 03:02:55;;;;;;;0.30;0.25;;;5.70;99.90;;;;;;5131360;27;20062;-64
2023/11/11 03:05:21;;;;;;;0.10;0.10;;;5.70;99.90;;;;;;5132579;27;20122;-64
2023/11/11 03:07:46;;;;;;;0.28;0.20;;;5.60;99.90;;;;;;5126091;27;20349;-64
2023/11/11 03:10:12;;;;;;;0.55;0.10;;;5.60;99.90;;;;;;5121044;27;20027;-63
2023/11/11 03:12:38;;;;;;;0.43;0.43;;;5.60;99.90;;;;;;5132419;27;20015;-63
2023/11/11 03:15:05;;;;;;;0.80;0.28;;;5.60;99.90;;;;;;5131190;27;20059;-63
2023/11/11 03:17:31;;;;;;;1.73;0.68;;;5.70;99.90;;;;;;5131628;27;20039;-63
2023/11/11 03:20:04;;;;;;;2.35;0.22;;;5.70;99.90;;;;;;5131102;27;20072;-63
2023/11/11 03:22:29;;;;;;;0.32;0.30;;;5.80;99.90;;;;;;5132229;27;20072;-63
2023/11/11 03:24:55;;;;;;;0.70;0.30;;;5.80;99.90;;;;;;5122404;27;20031;-63
2023/11/11 03:27:20;;;;;;;1.35;0.40;;;6.00;99.90;;;;;;5130077;27;20030;-63
2023/11/11 03:29:46;;;;;;;1.10;0.30;;;6.10;99.90;;;;;;5132270;27;20015;-63
2023/11/11 03:32:12;;;;;;;0.20;0.20;;;6.10;99.90;;;;;;5130295;27;20041;-63
2023/11/11 03:34:37;;;;;;;1.13;0.22;;;6.20;99.90;;;;;;5131404;27;20027;-63
2023/11/11 03:37:03;;;;;;;0.20;0.20;;;6.30;99.90;;;;;;5121431;27;20023;-63
2023/11/11 03:39:31;;;;;;;0.60;0.30;;;6.30;99.90;;;;;;5124717;28;20041;-63
2023/11/11 03:41:57;;;;;;;1.02;0.30;;;6.40;99.90;;;;;;5126371;28;20064;-63
2023/11/11 03:44:23;;;;;;;1.02;0.40;;;6.50;99.90;;;;;;5122507;27;20031;-63
2023/11/11 03:46:49;;;;;;;1.00;0.38;;;6.50;99.90;;;;;;5132447;27;20102;-63
2023/11/11 03:49:14;;;;;;;2.05;0.52;;;6.60;99.90;;;;;;5131762;27;20019;-63
2023/11/11 03:51:40;;;;;;;1.65;0.60;;;6.60;99.90;;;;;;5136092;27;20011;-63
2023/11/11 03:54:06;;;;;;;1.60;0.40;;;6.60;99.90;;;;;;5130684;27;20068;-63
2023/11/11 03:56:31;;;;;;;1.65;0.47;;;6.70;99.90;;;;;;5133876;27;20024;-63
2023/11/11 03:58:57;;;;;;;2.97;0.40;;;6.70;99.90;;;;;;5125430;27;20023;-64
2023/11/11 04:01:24;;;;;;;0.63;0.63;;;6.60;99.90;;;;;;5134864;27;20027;-63
2023/11/11 04:03:50;;;;;;;0.95;0.43;;;6.60;99.90;;;;;;5143441;27;20053;-63
2023/11/11 04:06:16;;;;;;;0.73;0.30;;;6.70;99.90;;;;;;5131562;27;20058;-63
2023/11/11 04:08:42;;;;;;;2.05;0.50;;;6.70;99.90;;;;;;5121439;27;20522;-64
2023/11/11 04:11:07;;;;;;;0.40;0.30;;;6.70;99.90;;;;;;5128257;27;20034;-64
2023/11/11 04:13:40;;;;;;;1.85;0.50;;;6.70;99.90;;;;;;5132388;27;20023;-65
2023/11/11 04:16:08;;;;;;;1.38;0.40;;;6.70;99.90;;;;;;5134769;27;20088;-63
2023/11/11 04:18:34;;;;;;;1.17;0.30;;;6.70;99.90;;;;;;5124587;27;20036;-64
2023/11/11 04:21:00;;;;;;;1.50;0.40;;;6.60;99.90;;;;;;5134664;27;20065;-64
2023/11/11 04:23:28;;;;;;;1.75;0.60;;;6.60;99.90;;;;;;5134802;27;20490;-63
2023/11/11 04:25:57;;;;;;;0.85;0.40;;;6.50;99.90;;;;;;5129225;27;20028;-63
2023/11/11 04:28:26;;;;;;;0.57;0.30;;;6.40;99.90;;;;;;5127810;27;20024;-63
2023/11/11 04:30:52;;;;;;;0.77;0.30;;;6.30;99.90;;;;;;5133831;27;20102;-63
2023/11/11 04:33:19;;;;;;;1.13;0.38;;;6.20;99.90;;;;;;5135180;27;20424;-63
2023/11/11 04:35:45;;;;;;;0.50;0.50;;;6.20;99.90;;;;;;5133549;27;20388;-63
2023/11/11 04:38:11;;;;;;;1.73;0.60;;;6.20;99.90;;;;;;5123432;27;20023;-63
2023/11/11 04:40:36;;;;;;;2.60;0.60;;;6.00;99.90;;;;;;5134918;27;20519;-63
2023/11/11 04:43:02;;;;;;;1.10;0.70;;;5.90;99.90;;;;;;5104044;27;20037;-63
2023/11/11 04:45:29;;;;;;;2.13;0.80;;;5.90;99.90;;;;;;5135148;27;20055;-63
2023/11/11 04:47:55;;;;;;;1.77;0.63;;;5.80;99.90;;;;;;5133557;27;20015;-63
2023/11/11 04:50:21;;;;;;;0.95;0.50;;;5.70;99.90;;;;;;5135160;27;20031;-63
2023/11/11 04:52:46;;;;;;;1.15;0.60;;;5.80;99.90;;;;;;5135435;27;20031;-63
2023/11/11 04:55:12;;;;;;;1.35;0.60;;;5.80;99.90;;;;;;5133673;27;20088;-63
2023/11/11 04:57:38;;;;;;;2.95;1.00;;;5.80;99.90;;;;;;5134937;27;20027;-63
2023/11/11 05:00:09;;;;;;;1.63;0.85;;;5.90;99.90;;;;;;5133369;27;20037;-63
2023/11/11 05:02:39;;;;;;;2.25;1.00;;;5.90;99.90;;;;;;5115283;27;20336;-63
2023/11/11 05:05:05;;;;;;;2.17;1.00;;;5.90;99.90;;;;;;5133817;27;20031;-63
2023/11/11 05:07:32;;;;;;;1.35;0.90;;;6.00;99.90;;;;;;5127229;27;20023;-63
2023/11/11 05:09:58;;;;;;;3.05;1.05;;;5.90;99.90;;;;;;5123926;27;20020;-63
2023/11/11 05:12:24;;;;;;;1.38;0.68;;;5.90;99.90;;;;;;5134237;27;20019;-63
2023/11/11 05:14:52;;;;;;;1.98;1.10;;;6.00;99.90;;;;;;5124683;27;20022;-64
2023/11/11 05:17:25;;;;;;;3.40;1.02;;;6.00;99.90;;;;;;5133973;27;20043;-63
2023/11/11 05:19:54;;;;;;;4.63;1.20;;;6.00;99.90;;;;;;5133510;27;20027;-63
2023/11/11 05:22:20;;;;;;;2.10;1.15;;;6.00;99.90;;;;;;5134509;27;20099;-63
2023/11/11 05:24:46;;;;;;;3.17;1.20;;;6.00;99.90;;;;;;5129865;27;20059;-63
2023/11/11 05:27:14;;;;;;;2.65;0.80;;;5.90;99.90;;;;;;5128452;27;20042;-63
2023/11/11 05:29:40;;;;;;;1.02;0.55;;;6.00;99.90;;;;;;5129409;27;20153;-63
2023/11/11 05:32:06;;;;;;;1.02;0.93;;;6.00;99.90;;;;;;5131811;27;20165;-63
2023/11/11 05:34:31;;;;;;;1.60;0.65;;;5.90;99.90;;;;;;5123007;27;20020;-63
2023/11/11 05:36:58;;;;;;;1.50;1.00;;;5.90;99.90;;;;;;5129921;27;20375;-62
2023/11/11 05:39:23;;;;;;;1.85;0.77;;;5.90;99.90;;;;;;5130004;27;20073;-63
2023/11/11 05:41:49;;;;;;;1.27;1.02;;;5.80;99.90;;;;;;5129661;27;20463;-65
2023/11/11 05:44:17;;;;;;;3.42;1.35;;;5.80;99.90;;;;;;5130871;27;20038;-63
2023/11/11 05:46:42;;;;;;;1.83;1.10;;;5.70;99.90;;;;;;5131228;27;20405;-62
2023/11/11 05:49:08;;;;;;;3.53;1.35;;;5.70;99.90;;;;;;5129530;27;20023;-63
2023/11/11 05:51:34;;;;;;;2.10;1.40;;;5.70;99.90;;;;;;5113486;27;20515;-63
2023/11/11 05:54:01;;;;;;;3.35;1.20;;;5.70;99.90;;;;;;5131771;27;20410;-63
2023/11/11 05:56:27;;;;;;;1.00;1.00;;;5.70;99.90;;;;;;5131125;27;20374;-65
2023/11/11 05:58:53;;;;;;;3.17;1.20;;;5.70;99.90;;;;;;5128104;27;20019;-65
2023/11/11 06:01:19;;;;;;;1.67;1.15;;;5.70;99.90;;;;;;5130754;27;20103;-63
2023/11/11 06:03:44;;;;;;;1.75;1.25;;;5.60;99.90;;;;;;5128322;27;20110;-62
2023/11/11 06:06:11;;;;;;;1.60;1.17;;;5.70;99.90;;;;;;5129034;27;20027;-63
2023/11/11 06:08:36;;;;;;;4.05;1.63;;;5.60;99.90;;;;;;5131219;27;20431;-63
2023/11/11 06:11:02;;;;;;;1.52;1.10;;;5.60;99.90;;;;;;5127085;27;20090;-63
2023/11/11 06:13:28;;;;;;;2.17;1.08;;;5.60;99.90;;;;;;5128398;27;20023;-63
2023/11/11 06:15:53;;;;;;;1.70;1.10;;;5.60;99.90;;;;;;5126781;27;20020;-63
2023/11/11 06:18:19;;;;;;;1.13;1.02;;;5.60;99.90;;;;;;5122413;27;20493;-63
2023/11/11 06:20:45;;;;;;;3.03;1.30;;;5.60;99.90;;;;;;5122150;27;20016;-65
2023/11/11 06:23:11;;;;;;;3.28;1.80;;;5.60;99.90;;;;;;5121177;27;20031;-65
2023/11/11 06:25:37;;;;;;;4.63;1.10;;;5.60;99.90;;;;;;5115508;27;20043;-65
2023/11/11 06:28:02;;;;;;;3.83;1.92;;;5.60;99.90;;;;;;5121436;27;20015;-66
2023/11/11 06:30:28;;;;;;;2.17;1.17;;;5.70;99.90;;;;;;5122765;27;20028;-65
2023/11/11 06:32:56;;;;;;;2.00;1.30;;;5.80;99.90;;;;;;5105814;27;20042;-64
2023/11/11 06:35:26;;;;;;;2.55;1.27;;;5.80;99.90;;;;;;5115067;27;20483;-65
2023/11/11 06:37:53;;;;;;;1.80;1.20;;;5.90;99.90;;;;;;5114484;27;20030;-65
2023/11/11 06:40:19;;;;;;;2.58;1.40;;;5.90;99.90;;;;;;5118129;27;20019;-66
2023/11/11 06:42:45;;;;;;;2.03;1.20;;;5.80;99.90;;;;;;5112061;27;20054;-66
2023/11/11 06:45:14;;;;;;;2.30;1.40;;;5.80;99.90;;;;;;5118812;27;20033;-65
2023/11/11 06:47:40;;;;;;;3.43;1.43;;;5.70;99.90;;;;;;5109833;27;20031;-65
2023/11/11 06:50:07;;;;;;;2.50;1.35;;;5.80;99.90;;;;;;5115720;27;20376;-65
2023/11/11 06:52:35;;;;;;;3.50;1.13;;;5.80;99.90;;;;;;5113754;27;20040;-66
2023/11/11 06:55:02;;;;;;;3.47;1.30;;;5.80;99.90;;;;;;5119197;27;20015;-67
2023/11/11 06:57:28;;;;;;;3.17;1.13;;;5.80;99.90;;;;;;5111509;27;20042;-67
2023/11/11 06:59:54;;;;;;;1.80;0.88;;;5.90;99.90;;;;;;5119105;27;20459;-66
2023/11/11 07:02:22;;;;;;;1.15;0.82;;;6.00;99.90;;;;;;5112135;27;20019;-67
2023/11/11 07:04:54;;;;;;;3.97;1.00;;;6.00;99.90;;;;;;5120229;27;20023;-69
2023/11/11 07:07:24;;;;;;;3.60;0.93;;;6.10;99.90;;;;;;5109574;27;20031;-68
2023/11/11 07:09:51;;;;;;;;;;;6.20;99.90;;;;;;5118869;27;20023;-69
2023/11/11 07:12:19;;;;;;;2.33;0.80;;;6.20;99.90;;;;;;5115096;27;19949;-69
2023/11/11 07:14:45;;;;;;;2.60;0.95;;;6.20;99.90;;;;;;5121250;27;20027;-70
2023/11/11 07:17:11;;;;;;;1.90;1.02;;;6.20;99.90;;;;;;5106077;27;20035;-69
2023/11/11 07:19:37;;;;;;;2.15;1.30;;;6.20;99.90;;;;;;5108642;28;20035;-70
2023/11/11 07:22:03;;;;;;;2.33;0.93;;;6.20;99.90;;;;;;5105185;28;20019;-65
2023/11/11 07:24:28;;;;;;;4.47;1.13;;;6.20;99.90;;;;;;5109364;28;20110;-65
2023/11/11 07:26:54;;;;;;;5.22;1.20;;;6.30;99.90;;;;;;5106446;28;20106;-66
2023/11/11 07:29:21;;;;;;;2.88;0.90;;;6.30;99.90;;;;;;5109283;28;20024;-65
2023/11/11 07:31:47;;;;;;;2.53;1.08;;;6.30;99.90;;;;;;5106025;28;20515;-66
2023/11/11 07:34:13;;;;;;;0.90;0.73;;;6.30;99.90;;;;;;5109201;28;20098;-66
2023/11/11 07:36:38;;;;;;;2.88;0.82;;;6.30;99.90;;;;;;5104349;28;20019;-67
2023/11/11 07:39:06;;;;;;;1.27;0.60;;;6.30;99.90;;;;;;5105996;28;20032;-68
2023/11/11 07:41:32;;;;;;;1.48;0.70;;;6.30;99.90;;;;;;5104083;28;20026;-68
2023/11/11 07:44:04;;;;;;;0.98;0.60;;;6.30;99.90;;;;;;5108022;28;20019;-68
2023/11/11 07:46:32;;;;;;;1.90;1.05;;;6.40;99.90;;;;;;5107789;28;20032;-67
2023/11/11 07:49:00;;;;;;;0.88;0.75;;;6.50;99.90;;;;;;5106446;28;20059;-67
2023/11/11 07:51:26;;;;;;;2.40;0.65;;;6.50;99.90;;;;;;5103251;28;20110;-67
2023/11/11 07:53:52;;;;;;;3.28;1.27;;;6.40;99.90;;;;;;5109441;28;20063;-67
2023/11/11 07:56:18;;;;;;;0.70;0.50;;;6.50;99.90;;;;;;5105221;28;20473;-67
2023/11/11 07:58:47;;;;;;;1.30;0.80;;;6.50;99.90;;;;;;5109812;28;20034;-68
2023/11/11 08:01:13;;;;;;;1.05;0.70;;;6.50;99.90;;;;;;5102302;28;20020;-68
2023/11/11 08:03:38;;;;;;;1.85;0.77;;;6.40;99.90;;;;;;5108916;28;20464;-69
2023/11/11 08:06:05;;;;;;;2.47;0.68;;;6.40;99.90;;;;;;5104893;28;20028;-69
2023/11/11 08:08:34;;;;;;;0.68;0.60;;;6.40;99.90;;;;;;5103577;28;20023;-68
2023/11/11 08:11:01;;;;;;;2.20;1.00;;;6.40;99.90;;;;;;5105554;28;20012;-70
2023/11/11 08:13:26;;;;;;;1.95;0.82;;;6.40;99.90;;;;;;5107022;28;20028;-67
2023/11/11 08:15:52;;;;;;;1.67;0.88;;;6.50;99.90;;;;;;5107892;28;20496;-67
2023/11/11 08:18:18;;;;;;;1.67;1.10;;;6.60;99.90;;;;;;5107612;28;20506;-69
2023/11/11 08:20:44;;;;;;;1.48;0.95;;;6.60;99.90;;;;;;5107510;28;20072;-68
2023/11/11 08:23:12;;;;;;;1.70;0.82;;;6.70;99.90;;;;;;5103341;28;20209;-67
2023/11/11 08:25:38;;;;;;;1.58;1.05;;;6.80;99.90;;;;;;5107533;28;20035;-75
2023/11/11 08:28:04;;;;;;;2.05;1.35;;;6.90;99.90;;;;;;5099275;28;20356;-67
2023/11/11 08:30:29;;;;;;;2.78;1.48;;;6.90;99.90;;;;;;5108568;28;20054;-67
2023/11/11 08:32:55;;;;;;;5.25;2.10;;;6.90;99.90;;;;;;5107016;28;20060;-70
2023/11/11 08:35:20;;;;;;;1.98;0.85;;;7.00;99.90;;;;;;5113018;28;20094;-68
2023/11/11 08:37:46;;;;;;;1.00;0.90;;;6.90;99.90;;;;;;5097865;28;20023;-67
2023/11/11 08:40:13;;;;;;;1.38;1.08;;;7.00;99.90;;;;;;5101860;28;20437;-70
2023/11/11 08:42:39;;;;;;;1.35;1.15;;;7.00;99.90;;;;;;5106390;28;20175;-73
2023/11/11 08:45:09;;;;;;;2.65;1.10;;;7.10;99.90;;;;;;5111471;28;20090;-71
2023/11/11 08:47:36;;;;;;;4.60;1.70;;;7.20;99.90;;;;;;5107331;28;20411;-67
2023/11/11 08:50:04;;;;;;;2.30;1.05;;;7.30;99.90;;;;;;5112055;28;20468;-72
2023/11/11 08:52:30;;;;;;;3.30;0.85;;;7.50;99.90;;;;;;5108653;27;20016;-68
2023/11/11 08:54:56;;;;;;;1.70;0.98;;;7.60;99.90;;;;;;5112268;28;20050;-68
2023/11/11 08:57:21;;;;;;;3.25;1.10;;;7.60;99.90;;;;;;5108054;28;20361;-68
2023/11/11 08:59:47;;;;;;;5.50;1.33;;;7.80;99.90;;;;;;5108241;28;20020;-66
2023/11/11 09:02:12;;;;;;;3.17;0.88;;;7.90;99.90;;;;;;5103988;28;20086;-69
2023/11/11 09:04:39;;;;;;;3.63;1.02;;;8.00;99.90;;;;;;5106130;28;20046;-69
2023/11/11 09:07:04;;;;;;;3.38;1.00;;;8.10;99.90;;;;;;5105748;28;20068;-68
2023/11/11 09:09:30;;;;;;;2.72;0.93;;;8.20;99.90;;;;;;5101467;27;20023;-67
2023/11/11 09:11:56;;;;;;;1.42;0.80;;;8.30;99.90;;;;;;5102254;28;20012;-67
2023/11/11 09:14:22;;;;;;;2.05;1.00;;;8.30;99.90;;;;;;5111887;28;20043;-67
2023/11/11 09:16:48;;;;;;;5.05;1.50;;;8.30;99.90;;;;;;5116499;27;20047;-66
2023/11/11 09:19:13;;;;;;;3.42;1.10;;;8.30;99.90;;;;;;5131256;27;20051;-71
2023/11/11 09:21:39;;;;;;;1.75;0.70;;;8.30;99.90;;;;;;5126038;27;20545;-69
2023/11/11 09:24:06;;;;;;;2.03;0.88;;;8.30;99.90;;;;;;5126556;27;20035;-69
2023/11/11 09:26:32;;;;;;;2.70;1.08;;;8.30;99.90;;;;;;5131239;27;20031;-69
2023/11/11 09:28:59;;;;;;;5.15;1.20;;;8.30;99.90;;;;;;5131007;27;20034;-68
2023/11/11 09:31:25;;;;;;;3.50;1.08;;;8.30;99.90;;;;;;5131695;27;20494;-68
2023/11/11 09:33:54;;;;;;;1.08;0.98;;;8.30;99.90;;;;;;5112724;27;20417;-67
2023/11/11 09:36:20;;;;;;;3.63;1.42;;;8.30;99.90;;;;;;5120058;27;20126;-67
2023/11/11 09:38:46;;;;;;;1.17;0.73;;;8.20;99.90;;;;;;5119884;27;20106;-71
2023/11/11 09:41:12;;;;;;;3.47;0.88;;;8.20;99.90;;;;;;5129073;27;20027;-68
2023/11/11 09:43:37;;;;;;;2.15;0.88;;;8.40;99.90;;;;;;5131520;27;20092;-68
2023/11/11 09:46:05;;;;;;;3.15;1.00;;;8.60;99.90;;;;;;5132541;27;20015;-69
2023/11/11 09:48:31;;;;;;;1.77;1.00;;;8.70;99.90;;;;;;5123210;27;20081;-68
2023/11/11 09:50:58;;;;;;;2.45;0.75;;;8.80;99.90;;;;;;5131684;27;20032;-68
2023/11/11 09:53:25;;;;;;;1.75;0.60;;;8.80;99.90;;;;;;5133338;27;20030;-68
2023/11/11 09:55:52;;;;;;;1.60;0.65;;;8.70;99.90;;;;;;5124240;27;20027;-67
2023/11/11 09:58:19;;;;;;;1.73;0.60;;;8.60;99.90;;;;;;5133422;27;20015;-68
2023/11/11 10:00:44;;;;;;;0.40;0.40;;;8.50;99.90;;;;;;5134065;27;20549;-68
2023/11/11 10:03:10;;;;;;;3.78;0.85;;;8.40;99.90;;;;;;5132271;27;20110;-68
2023/11/11 10:05:35;;;;;;;5.50;0.77;;;8.50;99.90;;;;;;5132676;27;20348;-68
2023/11/11 10:08:02;;;;;;;3.20;0.70;;;8.60;99.90;;;;;;5099166;27;20026;-67
2023/11/11 10:10:29;;;;;;;1.55;1.00;;;8.90;99.90;;;;;;5133024;27;20106;-69
2023/11/11 10:12:56;;;;;;;3.30;0.70;;;9.30;99.90;;;;;;5131808;27;20042;-66
2023/11/11 10:15:22;;;;;;;1.77;0.50;;;9.60;99.90;;;;;;5122845;27;20460;-67
2023/11/11 10:17:49;;;;;;;1.08;0.77;;;9.70;99.90;;;;;;5118116;27;20092;-66
2023/11/11 10:20:14;;;;;;;1.63;0.68;;;9.70;99.90;;;;;;5111438;28;20457;-68
2023/11/11 10:22:48;;;;;;;0.98;0.73;;;9.50;99.90;;;;;;5112494;28;20022;-68
2023/11/11 10:25:18;;;;;;;5.78;1.05;;;9.30;99.90;;;;;;5110939;28;20043;-66
2023/11/11 10:27:51;;;;;;;2.17;0.60;;;9.20;99.90;;;;;;5100122;28;20024;-67
2023/11/11 10:30:25;;;;;;;1.88;0.60;;;9.10;99.90;;;;;;5112011;28;20015;-67
2023/11/11 10:32:56;;;;;;;1.55;0.95;;;9.00;99.90;;;;;;5111118;28;20473;-66
2023/11/11 10:35:24;;;;;;;2.38;0.70;;;8.90;99.90;;;;;;5110877;28;20456;-68
2023/11/11 10:37:50;;;;;;;1.48;0.70;;;8.70;99.90;;;;;;5099510;28;20036;-66
2023/11/11 10:40:17;;;;;;;4.43;0.90;;;8.60;99.90;;;;;;5108816;28;20053;-69
2023/11/11 10:42:47;;;;;;;5.80;0.90;;;8.70;99.90;;;;;;5102919;28;20031;-67
2023/11/11 10:45:17;;;;;;;2.10;0.95;;;8.60;99.90;;;;;;5097305;28;20030;-67
2023/11/11 10:47:46;;;;;;;2.83;0.93;;;8.60;99.90;;;;;;5100099;28;20028;-67
2023/11/11 10:50:12;;;;;;;2.38;1.00;;;8.70;99.90;;;;;;5110302;28;20221;-67
2023/11/11 10:52:42;;;;;;;2.42;0.80;;;8.60;99.90;;;;;;5112030;28;20032;-68
2023/11/11 10:55:09;;;;;;;3.30;1.17;;;8.70;99.90;;;;;;5106074;28;20053;-67
2023/11/11 10:57:35;;;;;;;3.78;1.20;;;8.80;99.90;;;;;;5112324;28;20019;-67
2023/11/11 11:00:03;;;;;;;2.78;1.10;;;8.90;99.90;;;;;;5109609;28;20043;-67
2023/11/11 11:02:29;;;;;;;3.22;0.88;;;9.00;99.90;;;;;;5102291;28;20366;-67
2023/11/11 11:05:02;;;;;;;2.33;0.90;;;9.00;99.90;;;;;;5097115;28;20448;-67
2023/11/11 11:07:33;;;;;;;3.28;1.00;;;9.00;99.90;;;;;;5102280;28;20030;-67
2023/11/11 11:10:07;;;;;;;1.58;0.70;;;8.90;99.90;;;;;;5093912;28;20066;-68
2023/11/11 11:12:56;;;;;;;2.47;0.90;;;8.80;99.90;;;;;;5108465;28;20429;-68
2023/11/11 11:15:21;;;;;;;4.35;1.10;;;8.70;99.90;;;;;;5108969;28;20015;-67
2023/11/11 11:17:51;;;;;;;4.85;1.13;;;8.70;99.90;;;;;;5128695;27;20429;-67
2023/11/11 11:20:24;;;;;;;2.15;0.90;;;8.70;99.90;;;;;;5132269;27;20107;-68
2023/11/11 11:23:04;;;;;;;2.33;0.80;;;8.80;99.90;;;;;;5130552;27;20023;-72
2023/11/11 11:25:33;;;;;;;1.05;0.55;;;8.80;99.90;;;;;;5129768;27;20092;-71
2023/11/11 11:28:10;;;;;;;2.22;0.73;;;9.00;99.90;;;;;;5131164;27;20049;-67
2023/11/11 11:30:46;;;;;;;1.83;0.60;;;9.00;99.90;;;;;;5132073;27;20098;-67
2023/11/11 11:33:19;;;;;;;2.25;0.88;;;9.00;99.90;;;;;;5130497;27;20104;-73
2023/11/11 11:35:47;;;;;;;2.55;0.88;;;9.00;99.90;;;;;;5129668;27;20008;-71
2023/11/11 11:38:28;;;;;;;1.65;1.00;;;9.10;99.90;;;;;;5116605;27;20089;-75
2023/11/11 11:41:20;;;;;;;1.92;0.70;;;9.20;99.90;;;;;;5130958;28;20498;-68
2023/11/11 11:43:52;;;;;;;1.88;0.70;;;9.30;99.90;;;;;;5109284;28;20320;-74
2023/11/11 11:46:21;;;;;;;3.28;0.73;;;9.40;99.90;;;;;;5132382;28;20095;-69
2023/11/11 11:48:48;;;;;;;3.30;0.82;;;9.60;99.90;;;;;;5130711;28;20042;-68
2023/11/11 11:51:18;;;;;;;3.45;0.60;;;9.80;99.90;;;;;;5127633;28;20080;-68
2023/11/11 11:53:45;;;;;;;1.35;0.90;;;9.80;99.90;;;;;;5119474;28;20015;-65
2023/11/11 11:56:29;;;;;;;1.35;0.60;;;9.80;99.90;;;;;;5129427;28;20063;-70
2023/11/11 11:58:55;;;;;;;5.13;0.90;;;9.80;99.90;;;;;;5128417;28;20423;-70
2023/11/11 12:01:39;;;;;;;2.88;0.77;;;9.90;99.90;;;;;;5131723;28;20020;-67
2023/11/11 12:04:05;;;;;;;1.52;0.70;;;10.00;99.90;;;;;;5131397;28;20027;-80
2023/11/11 12:06:39;;;;;;;9.00;1.60;;;10.10;99.90;;;;;;5126078;27;20028;-69
2023/11/11 12:09:07;;;;;;;2.35;1.55;;;10.20;99.90;;;;;;5114201;28;20027;-68
2023/11/11 12:11:34;;;;;;;3.47;0.95;;;10.30;99.90;;;;;;5134803;27;20011;-66
2023/11/11 12:14:13;;;;;;;1.17;0.80;;;10.30;99.90;;;;;;5126407;27;20557;-68
2023/11/11 12:16:51;;;;;;;4.30;0.95;;;10.20;99.90;;;;;;5135446;27;20045;-68
2023/11/11 12:19:21;;;;;;;3.13;0.80;;;10.10;99.90;;;;;;5134923;27;20027;-68
2023/11/11 12:21:49;;;;;;;1.17;0.82;;;10.00;99.90;;;;;;5128018;27;20055;-67
2023/11/11 12:24:29;;;;;;;2.38;0.80;;;10.00;99.90;;;;;;5134276;27;20095;-68
2023/11/11 12:26:56;;;;;;;;;;;10.00;99.90;;;;;;5134417;27;20507;-67
2023/11/11 12:29:22;;;;;;;1.60;0.70;;;10.00;99.90;;;;;;5135040;27;19930;-66
2023/11/11 12:31:49;;;;;;;1.02;0.77;;;10.00;99.90;;;;;;5131412;27;20147;-66
2023/11/11 12:34:22;;;;;;;3.83;1.00;;;9.90;99.90;;;;;;5132133;27;20023;-67
2023/11/11 12:36:48;;;;;;;3.55;1.17;;;9.80;99.90;;;;;;5124530;27;20019;-77
2023/11/11 12:39:14;;;;;;;3.97;1.13;;;9.60;99.90;;;;;;5126147;27;20058;-69
2023/11/11 12:41:45;;;;;;;1.73;1.00;;;9.30;99.90;;;;;;5116366;27;20107;-69
2023/11/11 12:44:11;;;;;;;3.80;1.10;;;9.20;99.90;;;;;;5124592;27;20594;-65
2023/11/11 12:46:41;;;;;;;1.83;0.98;;;9.20;99.90;;;;;;5131012;27;20031;-74
2023/11/11 12:49:15;;;;;;;3.22;1.00;;;9.30;99.90;;;;;;5133686;27;20027;-74
2023/11/11 12:51:42;;;;;;;3.45;1.17;;;9.70;99.90;;;;;;5135132;27;20031;-72
2023/11/11 12:54:08;;;;;;;2.10;0.60;;;9.90;99.90;;;;;;5133745;27;20075;-65
2023/11/11 12:56:34;;;;;;;2.15;1.00;;;10.00;99.90;;;;;;5128294;27;20108;-66
2023/11/11 12:59:20;;;;;;;3.00;1.25;;;9.90;99.90;;;;;;5133703;27;20023;-67